createdAt,value
2023-04-19T00:00:18.029Z,89
2023-04-19T00:02:44.082Z,88.9
2023-04-19T00:05:10.257Z,89
2023-04-19T00:07:36.301Z,89.1
2023-04-19T00:10:02.361Z,88.9
2023-04-19T00:12:28.456Z,88.8
2023-04-19T00:14:54.659Z,88.9
2023-04-19T00:17:20.667Z,89.1
2023-04-19T00:19:46.761Z,89.1
2023-04-19T00:22:11.867Z,89.3
2023-04-19T00:24:37.934Z,89.2
2023-04-19T00:27:04.041Z,89.1
2023-04-19T00:29:30.171Z,89.2
2023-04-19T00:31:56.228Z,89.2
2023-04-19T00:34:22.328Z,89.3
2023-04-19T00:36:48.428Z,89.5
2023-04-19T00:39:13.545Z,89.5
2023-04-19T00:41:38.700Z,89.2
2023-04-19T00:44:04.752Z,89.4
2023-04-19T00:46:30.842Z,89.6
2023-04-19T00:48:56.937Z,89.7
2023-04-19T00:51:23.088Z,89.5
2023-04-19T00:53:49.118Z,89.5
2023-04-19T00:56:15.228Z,89.5
2023-04-19T00:58:41.344Z,89.6
2023-04-19T01:01:07.428Z,89.8
2023-04-19T01:03:33.540Z,89.9
2023-04-19T01:05:59.613Z,89.9
2023-04-19T01:08:25.786Z,90
2023-04-19T01:10:51.823Z,90
2023-04-19T01:13:16.985Z,90
2023-04-19T01:15:43.068Z,90.3
2023-04-19T01:18:09.111Z,90.3
2023-04-19T01:20:34.256Z,90.3
2023-04-19T01:23:00.338Z,90.5
2023-04-19T01:25:26.508Z,90.8
2023-04-19T01:27:52.566Z,91
2023-04-19T01:30:17.650Z,91.2
2023-04-19T01:32:42.775Z,90.8
2023-04-19T01:35:07.872Z,90.9
2023-04-19T01:37:32.986Z,91.4
2023-04-19T01:39:58.130Z,91.7
2023-04-19T01:42:23.218Z,91.8
2023-04-19T01:44:48.357Z,92.1
2023-04-19T01:47:13.470Z,92
2023-04-19T01:49:39.572Z,92.4
2023-04-19T01:52:05.687Z,92.1
2023-04-19T01:54:31.751Z,92.3
2023-04-19T01:56:57.821Z,92.5
2023-04-19T01:59:23.927Z,92.5
2023-04-19T02:01:50.051Z,92.3
2023-04-19T02:04:16.129Z,92.4
2023-04-19T02:06:42.209Z,92
2023-04-19T02:09:08.382Z,91.9
2023-04-19T02:11:34.416Z,92.3
2023-04-19T02:14:00.548Z,92.4
2023-04-19T02:16:26.594Z,93.1
2023-04-19T02:18:51.711Z,93.2
2023-04-19T02:21:17.814Z,92.6
2023-04-19T02:23:43.905Z,93.2
2023-04-19T02:26:09.996Z,93.2
2023-04-19T02:28:36.091Z,93.6
2023-04-19T02:31:02.188Z,93.5
2023-04-19T02:33:28.293Z,92.8
2023-04-19T02:35:53.458Z,92.8
2023-04-19T02:38:18.551Z,92.6
2023-04-19T02:40:44.632Z,92.6
2023-04-19T02:43:10.701Z,92.8
2023-04-19T02:45:36.815Z,93.1
2023-04-19T02:48:02.899Z,93.4
2023-04-19T02:50:28.995Z,93.4
2023-04-19T02:52:55.092Z,93.6
2023-04-19T02:55:21.187Z,94
2023-04-19T02:57:47.286Z,94.2
2023-04-19T03:00:13.384Z,94.5
2023-04-19T03:02:39.563Z,94.4
2023-04-19T03:05:05.560Z,94.7
2023-04-19T03:07:31.659Z,94.7
2023-04-19T03:09:56.780Z,95.1
2023-04-19T03:12:22.869Z,95.3
2023-04-19T03:14:48.958Z,95.4
2023-04-19T03:17:15.056Z,95.8
2023-04-19T03:19:41.146Z,95.9
2023-04-19T03:22:07.247Z,96
2023-04-19T03:24:33.434Z,96.5
2023-04-19T03:26:58.464Z,96.7
2023-04-19T03:31:49.657Z,97
2023-04-19T03:34:14.791Z,97.4
2023-04-19T03:36:39.925Z,97.5
2023-04-19T03:39:06.011Z,97.6
2023-04-19T03:41:32.092Z,98
2023-04-19T03:43:58.191Z,98.4
2023-04-19T03:46:24.289Z,98.5
2023-04-19T03:48:50.393Z,98.8
2023-04-19T03:51:16.481Z,99
2023-04-19T03:53:42.560Z,99.1
2023-04-19T03:56:08.665Z,99.3
2023-04-19T03:58:34.766Z,99.5
2023-04-19T04:01:00.837Z,99.7
2023-04-19T04:03:27.005Z,99.9
2023-04-19T04:05:53.040Z,100
2023-04-19T04:08:18.147Z,100
2023-04-19T04:10:44.243Z,100
2023-04-19T04:13:10.348Z,100
2023-04-19T04:15:36.436Z,100
2023-04-19T04:18:02.534Z,100
2023-04-19T04:20:28.643Z,100
2023-04-19T04:22:54.735Z,100
2023-04-19T04:25:19.845Z,100
2023-04-19T04:27:44.968Z,100
2023-04-19T04:30:10.093Z,100
2023-04-19T04:32:35.205Z,100
2023-04-19T04:35:01.302Z,100
2023-04-19T04:37:27.405Z,100
2023-04-19T04:39:53.554Z,100
2023-04-19T04:42:19.596Z,100
2023-04-19T04:44:45.810Z,100
2023-04-19T04:47:11.849Z,100
2023-04-19T04:49:37.899Z,100
2023-04-19T04:52:04.036Z,100
2023-04-19T04:54:30.121Z,100
2023-04-19T04:56:56.180Z,100
2023-04-19T04:59:22.300Z,100
2023-04-19T05:01:48.381Z,100
2023-04-19T05:04:13.500Z,100
2023-04-19T05:06:39.596Z,100
2023-04-19T05:09:05.709Z,100
2023-04-19T05:11:31.770Z,100
2023-04-19T05:13:57.886Z,100
2023-04-19T05:16:23.973Z,100
2023-04-19T05:18:50.115Z,100
2023-04-19T05:21:15.233Z,100
2023-04-19T05:23:40.321Z,100
2023-04-19T05:26:06.397Z,100
2023-04-19T05:28:32.515Z,100
2023-04-19T05:30:58.583Z,100
2023-04-19T05:33:24.681Z,99.6
2023-04-19T05:35:50.788Z,98.8
2023-04-19T05:38:16.944Z,98.3
2023-04-19T05:40:42.971Z,98.1
2023-04-19T05:43:09.073Z,98.2
2023-04-19T05:45:35.161Z,98.1
2023-04-19T05:48:01.272Z,97.7
2023-04-19T05:50:27.500Z,96.8
2023-04-19T05:52:53.671Z,95.9
2023-04-19T05:55:18.738Z,95.3
2023-04-19T05:57:44.818Z,94.6
2023-04-19T06:00:10.847Z,94.2
2023-04-19T06:02:36.976Z,93.6
2023-04-19T06:05:02.983Z,93.1
2023-04-19T06:07:29.054Z,91.8
2023-04-19T06:09:55.304Z,92.1
2023-04-19T06:12:20.256Z,91.7
2023-04-19T06:14:45.477Z,90.7
2023-04-19T06:17:10.632Z,89.8
2023-04-19T06:19:35.607Z,89.3
2023-04-19T06:22:00.807Z,89
2023-04-19T06:24:26.008Z,88.1
2023-04-19T06:26:51.962Z,87.5
2023-04-19T06:29:18.179Z,86.9
2023-04-19T06:31:44.182Z,86.8
2023-04-19T06:34:10.343Z,86.7
2023-04-19T06:36:36.436Z,86.5
2023-04-19T06:39:02.441Z,85.7
2023-04-19T06:41:28.551Z,85.5
2023-04-19T06:43:54.656Z,85
2023-04-19T06:46:20.727Z,85.2
2023-04-19T06:48:46.790Z,84.8
2023-04-19T06:51:13.030Z,84.4
2023-04-19T06:53:38.988Z,85
2023-04-19T06:56:04.130Z,84.3
2023-04-19T06:58:30.197Z,83.9
2023-04-19T07:00:56.384Z,83.1
2023-04-19T07:03:22.379Z,83
2023-04-19T07:05:48.483Z,83.4
2023-04-19T07:08:14.774Z,82.1
2023-04-19T07:10:40.670Z,82.1
2023-04-19T07:13:06.015Z,81.9
2023-04-19T07:15:31.003Z,81.6
2023-04-19T07:17:56.000Z,80.9
2023-04-19T07:20:21.346Z,80.3
2023-04-19T07:22:46.248Z,79.6
2023-04-19T07:25:11.459Z,78.9
2023-04-19T07:27:37.456Z,78.7
2023-04-19T07:30:03.612Z,78.5
2023-04-19T07:32:29.677Z,77.4
2023-04-19T07:34:55.790Z,78
2023-04-19T07:37:21.883Z,78.3
2023-04-19T07:39:48.179Z,79
2023-04-19T07:42:14.070Z,77.7
2023-04-19T07:44:40.349Z,78.7
2023-04-19T07:47:06.345Z,77
2023-04-19T07:49:32.366Z,76.3
2023-04-19T07:51:58.536Z,76.8
2023-04-19T07:54:24.542Z,76.5
2023-04-19T07:56:49.672Z,76.8
2023-04-19T07:59:15.977Z,76.7
2023-04-19T08:01:41.838Z,77
2023-04-19T08:04:08.133Z,76.2
2023-04-19T08:06:34.024Z,77
2023-04-19T08:09:00.118Z,77.3
2023-04-19T08:11:26.203Z,77.7
2023-04-19T08:13:51.345Z,77
2023-04-19T08:16:16.611Z,76.9
2023-04-19T08:18:41.627Z,77.1
2023-04-19T08:21:06.701Z,77.2
2023-04-19T08:23:32.772Z,76.9
2023-04-19T08:25:58.876Z,77.2
2023-04-19T08:28:24.967Z,76.9
2023-04-19T08:30:51.072Z,76.6
2023-04-19T08:33:17.188Z,76.9
2023-04-19T08:35:43.275Z,77.1
2023-04-19T08:38:09.643Z,75.8
2023-04-19T08:40:35.514Z,76.2
2023-04-19T08:43:01.551Z,76.1
2023-04-19T08:45:27.621Z,76.2
2023-04-19T08:47:53.845Z,76.2
2023-04-19T08:50:19.970Z,75.4
2023-04-19T08:52:44.938Z,75.2
2023-04-19T08:55:11.059Z,75.1
2023-04-19T08:57:37.131Z,73.9
2023-04-19T09:00:03.230Z,73.5
2023-04-19T09:02:29.424Z,73.2
2023-04-19T09:04:55.594Z,73
2023-04-19T09:07:21.498Z,73.6
2023-04-19T09:09:47.606Z,74.7
2023-04-19T09:12:12.861Z,74.6
2023-04-19T09:14:37.850Z,73.9
2023-04-19T09:17:03.963Z,73.3
2023-04-19T09:19:30.069Z,72.8
2023-04-19T09:21:56.150Z,72.4
2023-04-19T09:24:22.257Z,72.7
2023-04-19T09:26:48.305Z,72.9
2023-04-19T09:29:13.429Z,71.6
2023-04-19T09:31:39.528Z,72
2023-04-19T09:34:05.602Z,72.7
2023-04-19T09:36:31.713Z,73.7
2023-04-19T09:38:57.794Z,72.8
2023-04-19T09:41:23.899Z,72.8
2023-04-19T09:43:49.997Z,73.5
2023-04-19T09:46:16.083Z,73.3
2023-04-19T09:48:42.174Z,73.6
2023-04-19T09:51:08.296Z,72.7
2023-04-19T09:53:34.364Z,73.8
2023-04-19T09:56:00.465Z,71.7
2023-04-19T09:58:26.565Z,72.2
2023-04-19T10:00:51.744Z,72.5
2023-04-19T10:03:16.802Z,71.5
2023-04-19T10:05:41.927Z,72.1
2023-04-19T10:08:07.024Z,72.8
2023-04-19T10:10:32.128Z,73.3
2023-04-19T10:12:58.231Z,72.5
2023-04-19T10:15:24.325Z,73.2
2023-04-19T10:17:50.430Z,72.6
2023-04-19T10:20:16.524Z,72.9
2023-04-19T10:22:42.623Z,73.8
2023-04-19T10:25:08.709Z,73.7
2023-04-19T10:27:34.807Z,73.7
2023-04-19T10:30:00.910Z,72.4
2023-04-19T10:32:27.011Z,72.8
2023-04-19T10:34:53.112Z,73.1
2023-04-19T10:37:19.193Z,72.4
2023-04-19T10:39:45.284Z,73
2023-04-19T10:42:11.372Z,73.1
2023-04-19T10:44:36.479Z,71.8
2023-04-19T10:47:02.606Z,71.4
2023-04-19T10:49:28.671Z,70.5
2023-04-19T10:51:54.774Z,71.7
2023-04-19T10:54:20.891Z,72.7
2023-04-19T10:56:46.966Z,73.8
2023-04-19T10:59:12.080Z,73.6
2023-04-19T11:01:37.206Z,73.9
2023-04-19T11:04:02.325Z,74.9
2023-04-19T11:06:27.439Z,75
2023-04-19T11:08:53.518Z,75.5
2023-04-19T11:11:19.629Z,75.3
2023-04-19T11:13:45.708Z,76.5
2023-04-19T11:16:11.803Z,77.3
2023-04-19T11:18:37.955Z,77.6
2023-04-19T11:21:03.981Z,78.8
2023-04-19T11:23:30.086Z,79.8
2023-04-19T11:25:56.177Z,80.3
2023-04-19T11:28:22.300Z,81.9
2023-04-19T11:30:48.376Z,83.5
2023-04-19T11:33:14.467Z,83
2023-04-19T11:35:40.569Z,83.8
2023-04-19T11:38:05.671Z,85.1
2023-04-19T11:40:31.785Z,86.5
2023-04-19T11:42:57.884Z,88.6
2023-04-19T11:45:23.982Z,88.6
2023-04-19T11:47:50.068Z,90.9
2023-04-19T11:50:16.165Z,90.5
2023-04-19T11:55:08.352Z,91.1
2023-04-19T11:57:34.468Z,91.1
2023-04-19T12:00:00.560Z,92
2023-04-19T12:02:26.640Z,92.5
2023-04-19T12:04:52.748Z,92.3
2023-04-19T12:07:18.829Z,91.9
2023-04-19T12:09:43.959Z,92.9
2023-04-19T12:12:09.074Z,93
2023-04-19T12:14:34.188Z,93.4
2023-04-19T12:16:59.315Z,92.3
2023-04-19T12:19:25.408Z,92.2
2023-04-19T12:21:51.528Z,92
2023-04-19T12:24:17.598Z,92.8
2023-04-19T12:26:43.773Z,92.6
2023-04-19T12:29:09.852Z,92.7
2023-04-19T12:31:35.865Z,91.8
2023-04-19T12:34:02.012Z,92.3
2023-04-19T12:36:28.102Z,92.7
2023-04-19T12:38:54.153Z,93.4
2023-04-19T12:41:20.272Z,92.1
2023-04-19T12:43:46.357Z,92.2
2023-04-19T12:46:12.455Z,92.3
2023-04-19T12:48:37.568Z,92.7
2023-04-19T12:51:03.659Z,93.5
2023-04-19T12:53:29.744Z,93
2023-04-19T12:55:55.851Z,92.9
2023-04-19T12:58:21.953Z,93.4
2023-04-19T13:00:48.053Z,93.1
2023-04-19T13:03:14.126Z,93.5
2023-04-19T13:05:40.223Z,93.6
2023-04-19T13:08:06.333Z,92.6
2023-04-19T13:10:32.474Z,92.7
2023-04-19T13:12:58.547Z,92.3
2023-04-19T13:15:24.679Z,91.8
2023-04-19T13:17:50.757Z,90.1
2023-04-19T13:20:16.824Z,92
2023-04-19T13:22:42.884Z,92.5
2023-04-19T13:25:08.997Z,93.2
2023-04-19T13:27:35.090Z,93.1
2023-04-19T13:30:01.174Z,92.5
2023-04-19T13:32:27.262Z,91.1
2023-04-19T13:34:53.376Z,91
2023-04-19T13:37:19.456Z,90.7
2023-04-19T13:39:44.635Z,89.7
2023-04-19T13:42:09.749Z,89.3
2023-04-19T13:44:34.814Z,89.8
2023-04-19T13:46:59.945Z,88.6
2023-04-19T13:49:26.026Z,88.5
2023-04-19T13:51:52.131Z,89.4
2023-04-19T13:54:18.218Z,88.9
2023-04-19T13:56:44.327Z,89.9
2023-04-19T13:59:10.406Z,88.8
2023-04-19T14:01:36.510Z,88.1
2023-04-19T14:04:02.643Z,89.6
2023-04-19T14:06:28.691Z,87.8
2023-04-19T14:08:54.804Z,87.6
2023-04-19T14:11:20.880Z,86.9
2023-04-19T14:13:46.983Z,87
2023-04-19T14:16:13.095Z,86.1
2023-04-19T14:18:38.201Z,85.5
2023-04-19T14:21:04.311Z,84.5
2023-04-19T14:23:30.390Z,84.8
2023-04-19T14:25:56.514Z,82.9
2023-04-19T14:28:22.592Z,84.5
2023-04-19T14:30:48.691Z,83.9
2023-04-19T14:33:14.785Z,83.4
2023-04-19T14:35:39.901Z,85
2023-04-19T14:38:04.999Z,83.5
2023-04-19T14:40:30.130Z,86
2023-04-19T14:42:55.297Z,86.6
2023-04-19T14:45:21.347Z,87.1
2023-04-19T14:47:47.518Z,86.5
2023-04-19T14:50:13.579Z,85.7
2023-04-19T14:52:39.650Z,87.3
2023-04-19T14:55:05.754Z,87
2023-04-19T14:57:31.925Z,86.8
2023-04-19T14:59:57.932Z,87.1
2023-04-19T15:02:24.043Z,86.5
2023-04-19T15:04:50.090Z,85
2023-04-19T15:07:16.211Z,85.7
2023-04-19T15:09:42.291Z,85
2023-04-19T15:12:08.379Z,84.8
2023-04-19T15:14:33.506Z,84.7
2023-04-19T15:16:59.617Z,80.1
2023-04-19T15:19:25.684Z,77.5
2023-04-19T15:21:51.788Z,78.5
2023-04-19T15:24:17.871Z,77.9
2023-04-19T15:26:43.967Z,79.1
2023-04-19T15:29:10.065Z,80.9
2023-04-19T15:31:35.186Z,81.9
2023-04-19T15:34:00.318Z,80.7
2023-04-19T15:36:26.385Z,82
2023-04-19T15:38:52.488Z,81.6
2023-04-19T15:41:18.593Z,81.5
2023-04-19T15:43:44.700Z,75.5
2023-04-19T15:46:10.781Z,77.5
2023-04-19T15:48:36.880Z,79.1
2023-04-19T15:51:02.957Z,76.8
2023-04-19T15:53:29.058Z,77
2023-04-19T15:55:55.147Z,76.6
2023-04-19T15:58:21.252Z,78.7
2023-04-19T16:01:01.145Z,79.1
2023-04-19T16:03:13.445Z,79
2023-04-19T16:05:38.551Z,78.8
2023-04-19T16:08:04.659Z,79.8
2023-04-19T16:10:30.742Z,80.2
2023-04-19T16:12:56.855Z,80.4
2023-04-19T16:15:22.938Z,78.5
2023-04-19T16:17:49.027Z,79.7
2023-04-19T16:20:15.125Z,80.3
2023-04-19T16:22:40.243Z,79.6
2023-04-19T16:25:05.369Z,79.3
2023-04-19T16:27:30.474Z,78.1
2023-04-19T16:29:55.601Z,73.8
2023-04-19T16:32:20.717Z,70.4
2023-04-19T16:34:45.833Z,67.6
2023-04-19T16:37:11.955Z,67.6
2023-04-19T16:39:38.031Z,65.5
2023-04-19T16:42:04.114Z,66.5
2023-04-19T16:44:30.207Z,68.6
2023-04-19T16:46:56.295Z,71.9
2023-04-19T16:49:22.405Z,74
2023-04-19T16:51:48.491Z,71.7
2023-04-19T16:54:14.583Z,59.7
2023-04-19T16:56:40.684Z,58.8
2023-04-19T16:59:06.763Z,56.6
2023-04-19T17:01:32.882Z,57.4
2023-04-19T17:03:58.964Z,57.6
2023-04-19T17:06:25.057Z,52.2
2023-04-19T17:08:51.162Z,52.8
2023-04-19T17:11:17.264Z,51.6
2023-04-19T17:13:42.373Z,52.6
2023-04-19T17:16:08.470Z,52.7
2023-04-19T17:18:34.572Z,53.3
2023-04-19T17:21:00.639Z,52.3
2023-04-19T17:23:25.774Z,52.8
2023-04-19T17:25:50.884Z,53.4
2023-04-19T17:28:16.992Z,53.2
2023-04-19T17:30:43.110Z,54.5
2023-04-19T17:33:09.196Z,54
2023-04-19T17:35:35.247Z,55.5
2023-04-19T17:38:00.372Z,54.3
2023-04-19T17:40:26.477Z,53
2023-04-19T17:42:52.590Z,52.3
2023-04-19T17:45:18.664Z,52.5
2023-04-19T17:47:44.773Z,53.6
2023-04-19T17:50:10.839Z,53.7
2023-04-19T17:52:36.955Z,54.6
2023-04-19T17:55:03.036Z,53.7
2023-04-19T17:57:29.133Z,55
2023-04-19T17:59:55.230Z,56.3
2023-04-19T18:02:21.318Z,57.5
2023-04-19T18:04:47.424Z,57.4
2023-04-19T18:07:13.527Z,58.2
2023-04-19T18:09:38.644Z,58.6
2023-04-19T18:12:04.726Z,58.8
2023-04-19T18:14:30.829Z,59.1
2023-04-19T18:16:56.925Z,59.5
2023-04-19T18:19:22.035Z,59.9
2023-04-19T18:21:47.156Z,59.8
2023-04-19T18:24:12.282Z,60.3
2023-04-19T18:26:37.391Z,60.9
2023-04-19T18:29:03.494Z,61.3
2023-04-19T18:31:29.586Z,60.7
2023-04-19T18:33:55.683Z,62
2023-04-19T18:36:21.774Z,62
2023-04-19T18:38:47.861Z,61.2
2023-04-19T18:41:13.960Z,61.4
2023-04-19T18:43:40.053Z,61.1
2023-04-19T18:46:06.166Z,62.5
2023-04-19T18:48:32.251Z,62.5
2023-04-19T18:50:58.337Z,61
2023-04-19T18:53:24.435Z,61.5
2023-04-19T18:55:50.577Z,62.5
2023-04-19T18:58:15.654Z,63
2023-04-19T19:00:41.741Z,64.3
2023-04-19T19:03:07.844Z,63.9
2023-04-19T19:05:33.961Z,62.5
2023-04-19T19:08:00.028Z,63.8
2023-04-19T19:10:26.130Z,65
2023-04-19T19:12:52.244Z,67.1
2023-04-19T19:15:17.368Z,67.4
2023-04-19T19:17:42.479Z,68.8
2023-04-19T19:20:08.555Z,70.9
2023-04-19T19:22:34.676Z,71.1
2023-04-19T19:25:00.749Z,72.4
2023-04-19T19:27:26.865Z,74.5
2023-04-19T19:29:52.987Z,75.6
2023-04-19T19:32:19.027Z,77.9
2023-04-19T19:34:45.132Z,78.3
2023-04-19T19:37:11.213Z,78.7
2023-04-19T19:39:37.316Z,79.6
2023-04-19T19:42:03.406Z,80.3
2023-04-19T19:44:29.515Z,81.1
2023-04-19T19:46:55.676Z,81.5
2023-04-19T19:49:20.715Z,81.6
2023-04-19T19:51:46.827Z,82.3
2023-04-19T19:54:12.900Z,81.3
2023-04-19T19:56:39.026Z,82
2023-04-19T19:59:05.114Z,81.5
2023-04-19T20:01:31.210Z,81
2023-04-19T20:03:57.342Z,81.8
2023-04-19T20:06:22.410Z,82.3
2023-04-19T20:08:47.526Z,82.3
2023-04-19T20:11:12.646Z,83
2023-04-19T20:13:37.780Z,83.1
2023-04-19T20:16:02.882Z,83.9
2023-04-19T20:18:28.008Z,84.6
2023-04-19T20:20:54.106Z,84.2
2023-04-19T20:23:20.189Z,85.3
2023-04-19T20:25:46.292Z,85.7
2023-04-19T20:28:12.385Z,85.7
2023-04-19T20:30:38.487Z,85.9
2023-04-19T20:33:04.573Z,86.8
2023-04-19T20:35:30.663Z,86.3
2023-04-19T20:37:56.763Z,87
2023-04-19T20:40:22.864Z,87.5
2023-04-19T20:42:48.954Z,87.1
2023-04-19T20:45:15.051Z,86.5
2023-04-19T20:47:41.140Z,86.2
2023-04-19T20:50:06.251Z,86.2
2023-04-19T20:52:32.366Z,86.3
2023-04-19T20:54:58.453Z,87.1
2023-04-19T20:57:24.547Z,87.5
2023-04-19T20:59:50.639Z,87.2
2023-04-19T21:02:16.752Z,87.4
2023-04-19T21:04:42.839Z,87.3
2023-04-19T21:07:07.957Z,88
2023-04-19T21:09:33.086Z,88.2
2023-04-19T21:11:59.183Z,88.7
2023-04-19T21:14:25.270Z,88.7
2023-04-19T21:16:51.352Z,89.1
2023-04-19T21:19:17.451Z,88.7
2023-04-19T21:21:43.545Z,88.5
2023-04-19T21:24:09.650Z,89.2
2023-04-19T21:26:35.732Z,89.5
2023-04-19T21:29:01.822Z,90.1
2023-04-19T21:31:27.938Z,90.5
2023-04-19T21:33:54.028Z,90.7
2023-04-19T21:36:20.125Z,90.8
2023-04-19T21:38:46.219Z,91
2023-04-19T21:41:11.332Z,91.2
2023-04-19T21:43:37.421Z,91.5
2023-04-19T21:46:03.542Z,92.3
2023-04-19T21:48:29.634Z,91.9
2023-04-19T21:50:55.729Z,91.9
2023-04-19T21:53:21.833Z,92
2023-04-19T21:55:47.943Z,92
2023-04-19T21:58:13.018Z,92.2
2023-04-19T22:00:38.143Z,91.8
2023-04-19T22:03:03.272Z,91.9
2023-04-19T22:05:28.382Z,91.8
2023-04-19T22:07:53.552Z,92.3
2023-04-19T22:10:18.612Z,92.2
2023-04-19T22:12:44.710Z,92.4
2023-04-19T22:15:10.802Z,92.4
2023-04-19T22:17:36.906Z,92.1
2023-04-19T22:20:02.986Z,92.6
2023-04-19T22:22:29.090Z,92.6
2023-04-19T22:24:55.188Z,92.6
2023-04-19T22:27:21.289Z,92.8
2023-04-19T22:29:47.374Z,93.1
2023-04-19T22:32:13.474Z,93.2
2023-04-19T22:34:39.567Z,93.5
2023-04-19T22:37:05.672Z,93.7
2023-04-19T22:39:31.762Z,93.5
2023-04-19T22:41:56.860Z,93.3
2023-04-19T22:44:22.954Z,93.9
2023-04-19T22:46:49.063Z,94.2
2023-04-19T22:49:15.150Z,93.7
2023-04-19T22:51:41.243Z,93.9
2023-04-19T22:54:07.356Z,93.4
2023-04-19T22:56:33.438Z,93.1
2023-04-19T22:58:58.565Z,93.3
2023-04-19T23:01:23.673Z,93.3
2023-04-19T23:03:48.829Z,93.3
2023-04-19T23:06:13.915Z,93.5
2023-04-19T23:08:40.017Z,93.6
2023-04-19T23:11:06.098Z,93.9
2023-04-19T23:13:32.203Z,94.2
2023-04-19T23:15:58.303Z,94
2023-04-19T23:18:24.394Z,94.1
2023-04-19T23:20:50.493Z,94.7
2023-04-19T23:23:16.592Z,94.7
2023-04-19T23:25:42.682Z,94.8
2023-04-19T23:28:08.783Z,94.5
2023-04-19T23:30:34.874Z,94.8
2023-04-19T23:33:00.973Z,94.8
2023-04-19T23:35:27.056Z,95
2023-04-19T23:37:52.211Z,94.8
2023-04-19T23:40:18.320Z,95.2
2023-04-19T23:42:44.390Z,95.3
2023-04-19T23:45:10.481Z,95.2
2023-04-19T23:47:36.565Z,95.2
2023-04-19T23:50:02.712Z,95.5
2023-04-19T23:52:28.786Z,95.8
2023-04-19T23:54:53.918Z,95.9
2023-04-19T23:57:19.061Z,95.6
2023-04-19T23:59:44.161Z,95.6
